sensor_id;sensor_type;location;lat;lon;timestamp;temperature;humidity
10051;DHT22;5065;46.942;7.432;2023-04-06T00:01:26;4.90;82.80
10051;DHT22;5065;46.942;7.432;2023-04-06T00:03:53;4.90;82.30
10051;DHT22;5065;46.942;7.432;2023-04-06T00:06:21;4.90;83.60
10051;DHT22;5065;46.942;7.432;2023-04-06T00:08:49;4.90;83.40
10051;DHT22;5065;46.942;7.432;2023-04-06T00:11:18;4.90;84.70
10051;DHT22;5065;46.942;7.432;2023-04-06T00:13:45;5.00;84.40
10051;DHT22;5065;46.942;7.432;2023-04-06T00:16:13;5.00;84.70
10051;DHT22;5065;46.942;7.432;2023-04-06T00:18:40;5.00;84.20
10051;DHT22;5065;46.942;7.432;2023-04-06T00:21:11;5.00;84.40
10051;DHT22;5065;46.942;7.432;2023-04-06T00:23:38;5.00;84.20
10051;DHT22;5065;46.942;7.432;2023-04-06T00:26:08;5.10;84.20
10051;DHT22;5065;46.942;7.432;2023-04-06T00:28:36;5.10;83.80
10051;DHT22;5065;46.942;7.432;2023-04-06T00:31:03;5.00;83.80
10051;DHT22;5065;46.942;7.432;2023-04-06T00:33:30;4.90;84.00
10051;DHT22;5065;46.942;7.432;2023-04-06T00:35:58;4.80;84.00
10051;DHT22;5065;46.942;7.432;2023-04-06T00:38:25;4.80;84.60
10051;DHT22;5065;46.942;7.432;2023-04-06T00:40:52;4.80;85.20
10051;DHT22;5065;46.942;7.432;2023-04-06T00:43:21;4.70;85.60
10051;DHT22;5065;46.942;7.432;2023-04-06T00:45:48;4.70;86.30
10051;DHT22;5065;46.942;7.432;2023-04-06T00:48:15;4.70;86.90
10051;DHT22;5065;46.942;7.432;2023-04-06T00:50:43;4.60;86.60
10051;DHT22;5065;46.942;7.432;2023-04-06T00:53:10;4.60;86.60
10051;DHT22;5065;46.942;7.432;2023-04-06T00:55:38;4.70;86.90
10051;DHT22;5065;46.942;7.432;2023-04-06T00:58:06;4.70;87.10
10051;DHT22;5065;46.942;7.432;2023-04-06T01:00:34;4.60;87.00
10051;DHT22;5065;46.942;7.432;2023-04-06T01:03:02;4.60;87.80
10051;DHT22;5065;46.942;7.432;2023-04-06T01:05:33;4.50;87.10
10051;DHT22;5065;46.942;7.432;2023-04-06T01:08:00;4.50;87.70
10051;DHT22;5065;46.942;7.432;2023-04-06T01:10:28;4.40;87.80
10051;DHT22;5065;46.942;7.432;2023-04-06T01:12:56;4.40;88.20
10051;DHT22;5065;46.942;7.432;2023-04-06T01:15:23;4.40;88.00
10051;DHT22;5065;46.942;7.432;2023-04-06T01:17:53;4.40;88.10
10051;DHT22;5065;46.942;7.432;2023-04-06T01:20:20;4.30;88.50
10051;DHT22;5065;46.942;7.432;2023-04-06T01:22:49;4.30;88.40
10051;DHT22;5065;46.942;7.432;2023-04-06T01:25:16;4.30;89.20
10051;DHT22;5065;46.942;7.432;2023-04-06T01:27:43;4.20;89.00
10051;DHT22;5065;46.942;7.432;2023-04-06T01:30:11;4.20;88.90
10051;DHT22;5065;46.942;7.432;2023-04-06T01:32:38;4.20;88.70
10051;DHT22;5065;46.942;7.432;2023-04-06T01:35:06;4.30;88.80
10051;DHT22;5065;46.942;7.432;2023-04-06T01:37:34;4.20;88.50
10051;DHT22;5065;46.942;7.432;2023-04-06T01:40:03;4.20;88.60
10051;DHT22;5065;46.942;7.432;2023-04-06T01:42:30;4.10;89.20
10051;DHT22;5065;46.942;7.432;2023-04-06T01:44:57;4.10;89.20
10051;DHT22;5065;46.942;7.432;2023-04-06T01:47:24;4.00;89.30
10051;DHT22;5065;46.942;7.432;2023-04-06T01:49:52;4.00;89.70
10051;DHT22;5065;46.942;7.432;2023-04-06T01:52:19;4.00;89.20
10051;DHT22;5065;46.942;7.432;2023-04-06T01:54:46;4.00;90.10
10051;DHT22;5065;46.942;7.432;2023-04-06T01:57:15;3.90;90.10
10051;DHT22;5065;46.942;7.432;2023-04-06T01:59:42;3.90;90.10
10051;DHT22;5065;46.942;7.432;2023-04-06T02:02:09;3.90;89.20
10051;DHT22;5065;46.942;7.432;2023-04-06T02:04:38;3.90;90.20
10051;DHT22;5065;46.942;7.432;2023-04-06T02:07:05;3.90;90.40
10051;DHT22;5065;46.942;7.432;2023-04-06T02:09:33;3.80;90.30
10051;DHT22;5065;46.942;7.432;2023-04-06T02:12:00;3.80;90.80
10051;DHT22;5065;46.942;7.432;2023-04-06T02:14:29;3.70;90.80
10051;DHT22;5065;46.942;7.432;2023-04-06T02:16:56;3.70;90.80
10051;DHT22;5065;46.942;7.432;2023-04-06T02:19:23;3.60;91.00
10051;DHT22;5065;46.942;7.432;2023-04-06T02:21:50;3.60;91.30
10051;DHT22;5065;46.942;7.432;2023-04-06T02:24:18;3.70;91.40
10051;DHT22;5065;46.942;7.432;2023-04-06T02:26:45;3.60;90.80
10051;DHT22;5065;46.942;7.432;2023-04-06T02:29:12;3.60;91.20
10051;DHT22;5065;46.942;7.432;2023-04-06T02:31:41;3.50;91.20
10051;DHT22;5065;46.942;7.432;2023-04-06T02:34:08;3.50;91.40
10051;DHT22;5065;46.942;7.432;2023-04-06T02:36:37;3.40;92.00
10051;DHT22;5065;46.942;7.432;2023-04-06T02:39:04;3.40;91.90
10051;DHT22;5065;46.942;7.432;2023-04-06T02:41:32;3.40;92.10
10051;DHT22;5065;46.942;7.432;2023-04-06T02:43:59;3.50;92.30
10051;DHT22;5065;46.942;7.432;2023-04-06T02:46:26;3.50;92.40
10051;DHT22;5065;46.942;7.432;2023-04-06T02:48:55;3.50;92.30
10051;DHT22;5065;46.942;7.432;2023-04-06T02:51:23;3.50;92.40
10051;DHT22;5065;46.942;7.432;2023-04-06T02:53:51;3.50;92.40
10051;DHT22;5065;46.942;7.432;2023-04-06T02:56:18;3.60;92.50
10051;DHT22;5065;46.942;7.432;2023-04-06T02:58:46;3.60;92.50
10051;DHT22;5065;46.942;7.432;2023-04-06T03:01:14;3.60;92.20
10051;DHT22;5065;46.942;7.432;2023-04-06T03:03:41;3.60;92.50
10051;DHT22;5065;46.942;7.432;2023-04-06T03:06:10;3.60;92.60
10051;DHT22;5065;46.942;7.432;2023-04-06T03:08:37;3.60;92.60
10051;DHT22;5065;46.942;7.432;2023-04-06T03:11:04;3.50;92.80
10051;DHT22;5065;46.942;7.432;2023-04-06T03:13:31;3.50;93.10
10051;DHT22;5065;46.942;7.432;2023-04-06T03:15:58;3.40;93.10
10051;DHT22;5065;46.942;7.432;2023-04-06T03:18:26;3.50;93.30
10051;DHT22;5065;46.942;7.432;2023-04-06T03:20:53;3.50;93.40
10051;DHT22;5065;46.942;7.432;2023-04-06T03:23:22;3.50;93.30
10051;DHT22;5065;46.942;7.432;2023-04-06T03:25:49;3.50;93.40
10051;DHT22;5065;46.942;7.432;2023-04-06T03:28:16;3.50;92.70
10051;DHT22;5065;46.942;7.432;2023-04-06T03:30:45;3.50;93.50
10051;DHT22;5065;46.942;7.432;2023-04-06T03:33:12;3.50;94.00
10051;DHT22;5065;46.942;7.432;2023-04-06T03:35:40;3.50;93.60
10051;DHT22;5065;46.942;7.432;2023-04-06T03:38:07;3.50;93.90
10051;DHT22;5065;46.942;7.432;2023-04-06T03:40:35;3.50;94.10
10051;DHT22;5065;46.942;7.432;2023-04-06T03:43:03;3.50;93.90
10051;DHT22;5065;46.942;7.432;2023-04-06T03:45:31;3.40;94.00
10051;DHT22;5065;46.942;7.432;2023-04-06T03:47:58;3.40;93.70
10051;DHT22;5065;46.942;7.432;2023-04-06T03:50:25;3.30;93.60
10051;DHT22;5065;46.942;7.432;2023-04-06T03:52:55;3.20;93.80
10051;DHT22;5065;46.942;7.432;2023-04-06T03:55:23;3.20;94.00
10051;DHT22;5065;46.942;7.432;2023-04-06T03:57:51;3.30;94.10
10051;DHT22;5065;46.942;7.432;2023-04-06T04:00:18;3.20;94.20
10051;DHT22;5065;46.942;7.432;2023-04-06T04:02:46;3.20;94.40
10051;DHT22;5065;46.942;7.432;2023-04-06T04:05:13;3.20;94.50
10051;DHT22;5065;46.942;7.432;2023-04-06T04:07:40;3.20;94.40
10051;DHT22;5065;46.942;7.432;2023-04-06T04:10:08;3.20;94.60
10051;DHT22;5065;46.942;7.432;2023-04-06T04:12:36;3.10;94.90
10051;DHT22;5065;46.942;7.432;2023-04-06T04:15:05;3.10;94.90
10051;DHT22;5065;46.942;7.432;2023-04-06T04:17:33;3.10;95.30
10051;DHT22;5065;46.942;7.432;2023-04-06T04:20:00;3.20;95.20
10051;DHT22;5065;46.942;7.432;2023-04-06T04:22:27;3.20;95.30
10051;DHT22;5065;46.942;7.432;2023-04-06T04:24:54;3.20;95.20
10051;DHT22;5065;46.942;7.432;2023-04-06T04:27:22;3.20;95.40
10051;DHT22;5065;46.942;7.432;2023-04-06T04:29:50;3.20;95.20
10051;DHT22;5065;46.942;7.432;2023-04-06T04:32:19;3.20;95.30
10051;DHT22;5065;46.942;7.432;2023-04-06T04:34:46;3.20;95.60
10051;DHT22;5065;46.942;7.432;2023-04-06T04:37:14;3.20;95.50
10051;DHT22;5065;46.942;7.432;2023-04-06T04:39:41;3.20;95.40
10051;DHT22;5065;46.942;7.432;2023-04-06T04:42:09;3.30;95.20
10051;DHT22;5065;46.942;7.432;2023-04-06T04:44:36;3.30;95.10
10051;DHT22;5065;46.942;7.432;2023-04-06T04:47:05;3.30;94.80
10051;DHT22;5065;46.942;7.432;2023-04-06T04:49:33;3.30;94.70
10051;DHT22;5065;46.942;7.432;2023-04-06T04:52:00;3.30;94.50
10051;DHT22;5065;46.942;7.432;2023-04-06T04:54:28;3.20;94.80
10051;DHT22;5065;46.942;7.432;2023-04-06T04:56:55;3.20;94.80
10051;DHT22;5065;46.942;7.432;2023-04-06T04:59:22;3.30;94.70
10051;DHT22;5065;46.942;7.432;2023-04-06T05:01:49;3.30;94.50
10051;DHT22;5065;46.942;7.432;2023-04-06T05:04:16;3.30;94.50
10051;DHT22;5065;46.942;7.432;2023-04-06T05:06:45;3.30;94.40
10051;DHT22;5065;46.942;7.432;2023-04-06T05:09:12;3.30;94.50
10051;DHT22;5065;46.942;7.432;2023-04-06T05:11:40;3.40;94.80
10051;DHT22;5065;46.942;7.432;2023-04-06T05:14:07;3.40;94.70
10051;DHT22;5065;46.942;7.432;2023-04-06T05:16:34;3.40;94.60
10051;DHT22;5065;46.942;7.432;2023-04-06T05:19:02;3.40;94.50
10051;DHT22;5065;46.942;7.432;2023-04-06T05:21:29;3.50;94.50
10051;DHT22;5065;46.942;7.432;2023-04-06T05:23:58;3.40;94.50
10051;DHT22;5065;46.942;7.432;2023-04-06T05:26:28;3.50;94.50
10051;DHT22;5065;46.942;7.432;2023-04-06T05:28:55;3.40;94.40
10051;DHT22;5065;46.942;7.432;2023-04-06T05:31:22;3.50;94.30
10051;DHT22;5065;46.942;7.432;2023-04-06T05:33:50;3.50;94.10
10051;DHT22;5065;46.942;7.432;2023-04-06T05:36:17;3.50;94.30
10051;DHT22;5065;46.942;7.432;2023-04-06T05:38:45;3.60;94.20
10051;DHT22;5065;46.942;7.432;2023-04-06T05:41:14;3.70;94.10
10051;DHT22;5065;46.942;7.432;2023-04-06T05:43:41;3.70;94.40
10051;DHT22;5065;46.942;7.432;2023-04-06T05:46:08;3.70;94.80
10051;DHT22;5065;46.942;7.432;2023-04-06T05:48:36;3.80;94.90
10051;DHT22;5065;46.942;7.432;2023-04-06T05:51:03;3.80;95.00
10051;DHT22;5065;46.942;7.432;2023-04-06T05:53:32;3.80;95.10
10051;DHT22;5065;46.942;7.432;2023-04-06T05:56:00;3.90;95.10
10051;DHT22;5065;46.942;7.432;2023-04-06T05:58:30;3.90;95.20
10051;DHT22;5065;46.942;7.432;2023-04-06T06:01:00;3.90;95.00
10051;DHT22;5065;46.942;7.432;2023-04-06T06:03:28;3.90;94.80
10051;DHT22;5065;46.942;7.432;2023-04-06T06:06:00;4.00;94.60
10051;DHT22;5065;46.942;7.432;2023-04-06T06:08:27;4.00;94.80
10051;DHT22;5065;46.942;7.432;2023-04-06T06:10:55;3.90;94.60
10051;DHT22;5065;46.942;7.432;2023-04-06T06:13:23;4.00;94.90
10051;DHT22;5065;46.942;7.432;2023-04-06T06:15:52;3.90;94.90
10051;DHT22;5065;46.942;7.432;2023-04-06T06:18:19;4.00;94.90
10051;DHT22;5065;46.942;7.432;2023-04-06T06:20:46;4.10;94.90
10051;DHT22;5065;46.942;7.432;2023-04-06T06:23:14;4.10;94.90
10051;DHT22;5065;46.942;7.432;2023-04-06T06:25:41;4.30;94.70
10051;DHT22;5065;46.942;7.432;2023-04-06T06:28:09;4.40;94.30
10051;DHT22;5065;46.942;7.432;2023-04-06T06:30:36;4.60;94.30
10051;DHT22;5065;46.942;7.432;2023-04-06T06:33:05;4.90;93.90
10051;DHT22;5065;46.942;7.432;2023-04-06T06:35:32;5.30;93.80
10051;DHT22;5065;46.942;7.432;2023-04-06T06:37:59;5.60;92.70
10051;DHT22;5065;46.942;7.432;2023-04-06T06:40:26;5.90;91.50
10051;DHT22;5065;46.942;7.432;2023-04-06T06:42:54;6.20;90.90
10051;DHT22;5065;46.942;7.432;2023-04-06T06:45:21;6.50;90.40
10051;DHT22;5065;46.942;7.432;2023-04-06T06:47:48;6.90;89.40
10051;DHT22;5065;46.942;7.432;2023-04-06T06:50:17;7.20;87.50
10051;DHT22;5065;46.942;7.432;2023-04-06T06:52:44;7.40;86.80
10051;DHT22;5065;46.942;7.432;2023-04-06T06:55:11;7.50;84.90
10051;DHT22;5065;46.942;7.432;2023-04-06T06:57:38;7.70;84.20
10051;DHT22;5065;46.942;7.432;2023-04-06T07:00:09;7.80;84.20
10051;DHT22;5065;46.942;7.432;2023-04-06T07:02:36;8.00;82.40
10051;DHT22;5065;46.942;7.432;2023-04-06T07:05:04;8.10;81.90
10051;DHT22;5065;46.942;7.432;2023-04-06T07:07:33;8.30;81.10
10051;DHT22;5065;46.942;7.432;2023-04-06T07:10:01;8.50;79.70
10051;DHT22;5065;46.942;7.432;2023-04-06T07:12:30;8.60;80.40
10051;DHT22;5065;46.942;7.432;2023-04-06T07:14:57;8.70;78.60
10051;DHT22;5065;46.942;7.432;2023-04-06T07:17:25;8.90;79.40
10051;DHT22;5065;46.942;7.432;2023-04-06T07:19:52;9.20;78.30
10051;DHT22;5065;46.942;7.432;2023-04-06T07:22:19;9.50;77.60
10051;DHT22;5065;46.942;7.432;2023-04-06T07:24:48;9.50;75.90
10051;DHT22;5065;46.942;7.432;2023-04-06T07:27:16;9.60;75.60
10051;DHT22;5065;46.942;7.432;2023-04-06T07:29:44;9.60;75.10
10051;DHT22;5065;46.942;7.432;2023-04-06T07:32:12;9.60;75.20
10051;DHT22;5065;46.942;7.432;2023-04-06T07:34:39;9.50;75.30
10051;DHT22;5065;46.942;7.432;2023-04-06T07:37:06;9.70;75.30
10051;DHT22;5065;46.942;7.432;2023-04-06T07:39:34;9.90;74.40
10051;DHT22;5065;46.942;7.432;2023-04-06T07:42:03;10.00;72.60
10051;DHT22;5065;46.942;7.432;2023-04-06T07:44:30;10.20;72.40
10051;DHT22;5065;46.942;7.432;2023-04-06T07:46:57;10.40;73.00
10051;DHT22;5065;46.942;7.432;2023-04-06T07:49:25;10.50;71.30
10051;DHT22;5065;46.942;7.432;2023-04-06T07:51:52;10.60;72.20
10051;DHT22;5065;46.942;7.432;2023-04-06T07:54:19;10.80;71.90
10051;DHT22;5065;46.942;7.432;2023-04-06T07:56:47;11.00;71.70
10051;DHT22;5065;46.942;7.432;2023-04-06T07:59:15;11.20;72.30
10051;DHT22;5065;46.942;7.432;2023-04-06T08:01:42;11.50;70.70
10051;DHT22;5065;46.942;7.432;2023-04-06T08:04:10;11.60;71.20
10051;DHT22;5065;46.942;7.432;2023-04-06T08:06:37;11.60;70.50
10051;DHT22;5065;46.942;7.432;2023-04-06T08:09:04;11.60;70.70
10051;DHT22;5065;46.942;7.432;2023-04-06T08:11:32;11.70;70.20
10051;DHT22;5065;46.942;7.432;2023-04-06T08:13:59;11.80;70.90
10051;DHT22;5065;46.942;7.432;2023-04-06T08:16:28;12.10;69.60
10051;DHT22;5065;46.942;7.432;2023-04-06T08:18:56;12.30;70.40
10051;DHT22;5065;46.942;7.432;2023-04-06T08:21:23;12.60;67.60
10051;DHT22;5065;46.942;7.432;2023-04-06T08:23:50;12.60;68.60
10051;DHT22;5065;46.942;7.432;2023-04-06T08:26:17;12.70;70.00
10051;DHT22;5065;46.942;7.432;2023-04-06T08:28:45;12.90;67.60
10051;DHT22;5065;46.942;7.432;2023-04-06T08:31:12;13.10;65.50
10051;DHT22;5065;46.942;7.432;2023-04-06T08:33:41;13.30;65.90
10051;DHT22;5065;46.942;7.432;2023-04-06T08:36:10;13.40;63.00
10051;DHT22;5065;46.942;7.432;2023-04-06T08:38:38;13.40;64.50
10051;DHT22;5065;46.942;7.432;2023-04-06T08:41:09;13.50;64.70
10051;DHT22;5065;46.942;7.432;2023-04-06T08:43:43;13.60;65.90
10051;DHT22;5065;46.942;7.432;2023-04-06T08:46:11;13.80;67.80
10051;DHT22;5065;46.942;7.432;2023-04-06T08:48:39;14.00;66.90
10051;DHT22;5065;46.942;7.432;2023-04-06T08:51:09;14.10;64.40
10051;DHT22;5065;46.942;7.432;2023-04-06T08:53:37;14.10;63.80
10051;DHT22;5065;46.942;7.432;2023-04-06T08:56:05;14.20;64.70
10051;DHT22;5065;46.942;7.432;2023-04-06T08:58:37;14.40;64.30
10051;DHT22;5065;46.942;7.432;2023-04-06T09:01:08;14.60;66.80
10051;DHT22;5065;46.942;7.432;2023-04-06T09:03:38;14.80;66.90
10051;DHT22;5065;46.942;7.432;2023-04-06T09:06:08;15.10;66.30
10051;DHT22;5065;46.942;7.432;2023-04-06T09:08:39;15.20;72.40
10051;DHT22;5065;46.942;7.432;2023-04-06T09:11:07;15.40;68.60
10051;DHT22;5065;46.942;7.432;2023-04-06T09:13:45;15.40;74.90
10051;DHT22;5065;46.942;7.432;2023-04-06T09:16:12;15.50;68.30
10051;DHT22;5065;46.942;7.432;2023-04-06T09:18:42;15.60;66.80
10051;DHT22;5065;46.942;7.432;2023-04-06T09:21:11;15.70;70.00
10051;DHT22;5065;46.942;7.432;2023-04-06T09:23:39;15.80;77.00
10051;DHT22;5065;46.942;7.432;2023-04-06T09:26:08;15.90;73.40
10051;DHT22;5065;46.942;7.432;2023-04-06T09:28:48;16.10;77.60
10051;DHT22;5065;46.942;7.432;2023-04-06T09:31:25;16.30;77.30
10051;DHT22;5065;46.942;7.432;2023-04-06T09:33:53;16.40;76.00
10051;DHT22;5065;46.942;7.432;2023-04-06T09:36:29;16.50;69.70
10051;DHT22;5065;46.942;7.432;2023-04-06T09:38:58;16.60;70.90
10051;DHT22;5065;46.942;7.432;2023-04-06T09:41:40;16.70;60.50
10051;DHT22;5065;46.942;7.432;2023-04-06T09:44:10;16.70;63.50
10051;DHT22;5065;46.942;7.432;2023-04-06T09:46:39;16.70;65.90
10051;DHT22;5065;46.942;7.432;2023-04-06T09:49:07;16.80;70.40
10051;DHT22;5065;46.942;7.432;2023-04-06T09:51:37;16.90;73.30
10051;DHT22;5065;46.942;7.432;2023-04-06T09:54:06;17.10;73.60
10051;DHT22;5065;46.942;7.432;2023-04-06T09:56:40;17.20;75.90
10051;DHT22;5065;46.942;7.432;2023-04-06T09:59:14;17.40;73.20
10051;DHT22;5065;46.942;7.432;2023-04-06T10:01:48;17.50;74.30
10051;DHT22;5065;46.942;7.432;2023-04-06T10:04:23;17.70;71.10
10051;DHT22;5065;46.942;7.432;2023-04-06T10:06:55;17.80;72.60
10051;DHT22;5065;46.942;7.432;2023-04-06T10:09:28;17.80;72.40
10051;DHT22;5065;46.942;7.432;2023-04-06T10:12:02;17.80;72.20
10051;DHT22;5065;46.942;7.432;2023-04-06T10:14:31;17.70;72.70
10051;DHT22;5065;46.942;7.432;2023-04-06T10:16:58;17.70;67.60
10051;DHT22;5065;46.942;7.432;2023-04-06T10:19:32;17.70;67.90
10051;DHT22;5065;46.942;7.432;2023-04-06T10:22:03;17.60;71.80
10051;DHT22;5065;46.942;7.432;2023-04-06T10:24:31;17.60;65.90
10051;DHT22;5065;46.942;7.432;2023-04-06T10:27:00;17.50;67.40
10051;DHT22;5065;46.942;7.432;2023-04-06T10:29:28;17.40;72.20
10051;DHT22;5065;46.942;7.432;2023-04-06T10:32:07;17.30;64.60
10051;DHT22;5065;46.942;7.432;2023-04-06T10:34:35;17.30;64.40
10051;DHT22;5065;46.942;7.432;2023-04-06T10:37:13;17.20;68.70
10051;DHT22;5065;46.942;7.432;2023-04-06T10:39:47;17.20;64.70
10051;DHT22;5065;46.942;7.432;2023-04-06T10:42:14;17.20;65.00
10051;DHT22;5065;46.942;7.432;2023-04-06T10:44:44;17.20;67.40
10051;DHT22;5065;46.942;7.432;2023-04-06T10:47:18;17.20;67.60
10051;DHT22;5065;46.942;7.432;2023-04-06T10:49:45;17.20;62.80
10051;DHT22;5065;46.942;7.432;2023-04-06T10:52:14;17.10;72.70
10051;DHT22;5065;46.942;7.432;2023-04-06T10:54:42;17.10;65.50
10051;DHT22;5065;46.942;7.432;2023-04-06T10:57:10;17.10;73.00
10051;DHT22;5065;46.942;7.432;2023-04-06T10:59:43;17.10;62.10
10051;DHT22;5065;46.942;7.432;2023-04-06T11:02:19;17.00;55.70
10051;DHT22;5065;46.942;7.432;2023-04-06T11:04:55;16.90;64.20
10051;DHT22;5065;46.942;7.432;2023-04-06T11:07:25;16.90;71.90
10051;DHT22;5065;46.942;7.432;2023-04-06T11:09:52;16.90;72.70
10051;DHT22;5065;46.942;7.432;2023-04-06T11:12:24;16.80;71.20
10051;DHT22;5065;46.942;7.432;2023-04-06T11:14:56;16.70;70.20
10051;DHT22;5065;46.942;7.432;2023-04-06T11:17:28;16.60;77.40
10051;DHT22;5065;46.942;7.432;2023-04-06T11:19:56;16.60;71.60
10051;DHT22;5065;46.942;7.432;2023-04-06T11:22:26;16.50;62.90
10051;DHT22;5065;46.942;7.432;2023-04-06T11:25:04;16.50;73.30
10051;DHT22;5065;46.942;7.432;2023-04-06T11:27:32;16.50;55.60
10051;DHT22;5065;46.942;7.432;2023-04-06T11:30:00;16.40;58.90
10051;DHT22;5065;46.942;7.432;2023-04-06T11:32:28;16.40;71.50
10051;DHT22;5065;46.942;7.432;2023-04-06T11:34:57;16.40;60.20
10051;DHT22;5065;46.942;7.432;2023-04-06T11:37:27;16.40;64.60
10051;DHT22;5065;46.942;7.432;2023-04-06T11:39:55;16.40;72.70
10051;DHT22;5065;46.942;7.432;2023-04-06T11:42:23;16.40;72.90
10051;DHT22;5065;46.942;7.432;2023-04-06T11:44:51;16.40;68.50
10051;DHT22;5065;46.942;7.432;2023-04-06T11:47:19;16.40;63.00
10051;DHT22;5065;46.942;7.432;2023-04-06T11:49:48;16.50;65.80
10051;DHT22;5065;46.942;7.432;2023-04-06T11:52:17;16.40;69.90
10051;DHT22;5065;46.942;7.432;2023-04-06T11:54:47;16.40;63.50
10051;DHT22;5065;46.942;7.432;2023-04-06T11:57:15;16.40;71.90
10051;DHT22;5065;46.942;7.432;2023-04-06T11:59:42;16.30;58.50
10051;DHT22;5065;46.942;7.432;2023-04-06T12:02:09;16.30;58.00
10051;DHT22;5065;46.942;7.432;2023-04-06T12:04:37;16.30;60.70
10051;DHT22;5065;46.942;7.432;2023-04-06T12:07:06;16.30;67.60
10051;DHT22;5065;46.942;7.432;2023-04-06T12:09:33;16.40;59.00
10051;DHT22;5065;46.942;7.432;2023-04-06T12:12:03;16.40;72.30
10051;DHT22;5065;46.942;7.432;2023-04-06T12:14:31;16.40;75.70
10051;DHT22;5065;46.942;7.432;2023-04-06T12:17:01;16.40;74.10
10051;DHT22;5065;46.942;7.432;2023-04-06T12:19:31;16.40;56.70
10051;DHT22;5065;46.942;7.432;2023-04-06T12:21:58;16.30;71.60
10051;DHT22;5065;46.942;7.432;2023-04-06T12:24:25;16.30;67.60
10051;DHT22;5065;46.942;7.432;2023-04-06T12:26:54;16.20;57.20
10051;DHT22;5065;46.942;7.432;2023-04-06T12:29:24;16.20;70.30
10051;DHT22;5065;46.942;7.432;2023-04-06T12:31:51;16.20;63.70
10051;DHT22;5065;46.942;7.432;2023-04-06T12:34:19;16.20;57.20
10051;DHT22;5065;46.942;7.432;2023-04-06T12:36:46;16.20;69.80
10051;DHT22;5065;46.942;7.432;2023-04-06T12:39:15;16.20;76.30
10051;DHT22;5065;46.942;7.432;2023-04-06T12:41:43;16.20;72.40
10051;DHT22;5065;46.942;7.432;2023-04-06T12:44:10;16.20;69.30
10051;DHT22;5065;46.942;7.432;2023-04-06T12:46:40;16.20;55.40
10051;DHT22;5065;46.942;7.432;2023-04-06T12:49:08;16.20;67.30
10051;DHT22;5065;46.942;7.432;2023-04-06T12:51:36;16.20;61.70
10051;DHT22;5065;46.942;7.432;2023-04-06T12:54:04;16.20;61.60
10051;DHT22;5065;46.942;7.432;2023-04-06T12:56:31;16.20;62.10
10051;DHT22;5065;46.942;7.432;2023-04-06T12:58:59;16.10;58.20
10051;DHT22;5065;46.942;7.432;2023-04-06T13:01:26;16.10;74.70
10051;DHT22;5065;46.942;7.432;2023-04-06T13:03:55;16.10;74.40
10051;DHT22;5065;46.942;7.432;2023-04-06T13:06:23;16.20;66.30
10051;DHT22;5065;46.942;7.432;2023-04-06T13:08:53;16.20;66.10
10051;DHT22;5065;46.942;7.432;2023-04-06T13:11:20;16.20;76.80
10051;DHT22;5065;46.942;7.432;2023-04-06T13:13:49;16.20;67.50
10051;DHT22;5065;46.942;7.432;2023-04-06T13:16:17;16.20;64.10
10051;DHT22;5065;46.942;7.432;2023-04-06T13:18:45;16.10;65.30
10051;DHT22;5065;46.942;7.432;2023-04-06T13:21:15;16.10;58.10
10051;DHT22;5065;46.942;7.432;2023-04-06T13:23:43;16.00;59.00
10051;DHT22;5065;46.942;7.432;2023-04-06T13:26:10;16.00;68.10
10051;DHT22;5065;46.942;7.432;2023-04-06T13:28:39;16.00;64.10
10051;DHT22;5065;46.942;7.432;2023-04-06T13:31:06;16.00;65.80
10051;DHT22;5065;46.942;7.432;2023-04-06T13:33:34;16.00;68.90
10051;DHT22;5065;46.942;7.432;2023-04-06T13:36:01;16.00;73.30
10051;DHT22;5065;46.942;7.432;2023-04-06T13:38:30;16.00;65.60
10051;DHT22;5065;46.942;7.432;2023-04-06T13:40:57;15.90;71.60
10051;DHT22;5065;46.942;7.432;2023-04-06T13:43:24;15.90;64.00
10051;DHT22;5065;46.942;7.432;2023-04-06T13:45:54;15.90;74.50
10051;DHT22;5065;46.942;7.432;2023-04-06T13:48:23;15.90;66.90
10051;DHT22;5065;46.942;7.432;2023-04-06T13:50:52;15.90;67.10
10051;DHT22;5065;46.942;7.432;2023-04-06T13:53:19;15.90;72.20
10051;DHT22;5065;46.942;7.432;2023-04-06T13:55:54;15.90;65.10
10051;DHT22;5065;46.942;7.432;2023-04-06T13:58:21;16.00;65.30
10051;DHT22;5065;46.942;7.432;2023-04-06T14:00:48;16.00;77.30
10051;DHT22;5065;46.942;7.432;2023-04-06T14:03:16;16.00;75.80
10051;DHT22;5065;46.942;7.432;2023-04-06T14:05:44;16.00;67.70
10051;DHT22;5065;46.942;7.432;2023-04-06T14:08:11;16.00;70.70
10051;DHT22;5065;46.942;7.432;2023-04-06T14:10:39;16.00;75.20
10051;DHT22;5065;46.942;7.432;2023-04-06T14:13:09;16.10;79.50
10051;DHT22;5065;46.942;7.432;2023-04-06T14:15:36;16.10;77.40
10051;DHT22;5065;46.942;7.432;2023-04-06T14:18:03;16.10;77.30
10051;DHT22;5065;46.942;7.432;2023-04-06T14:20:31;16.10;75.30
10051;DHT22;5065;46.942;7.432;2023-04-06T14:22:59;16.10;76.90
10051;DHT22;5065;46.942;7.432;2023-04-06T14:25:27;16.10;55.00
10051;DHT22;5065;46.942;7.432;2023-04-06T14:27:56;16.10;65.70
10051;DHT22;5065;46.942;7.432;2023-04-06T14:30:25;16.10;68.80
10051;DHT22;5065;46.942;7.432;2023-04-06T14:32:56;16.10;62.70
10051;DHT22;5065;46.942;7.432;2023-04-06T14:35:23;16.10;59.30
10051;DHT22;5065;46.942;7.432;2023-04-06T14:37:51;16.10;57.20
10051;DHT22;5065;46.942;7.432;2023-04-06T14:40:18;16.10;61.90
10051;DHT22;5065;46.942;7.432;2023-04-06T14:42:45;16.00;64.60
10051;DHT22;5065;46.942;7.432;2023-04-06T14:45:13;16.10;68.00
10051;DHT22;5065;46.942;7.432;2023-04-06T14:47:43;16.10;60.50
10051;DHT22;5065;46.942;7.432;2023-04-06T14:50:13;16.00;58.60
10051;DHT22;5065;46.942;7.432;2023-04-06T14:52:40;16.00;57.20
10051;DHT22;5065;46.942;7.432;2023-04-06T14:55:08;16.00;64.10
10051;DHT22;5065;46.942;7.432;2023-04-06T14:57:35;16.00;61.00
10051;DHT22;5065;46.942;7.432;2023-04-06T15:00:03;16.00;53.80
10051;DHT22;5065;46.942;7.432;2023-04-06T15:02:32;16.00;57.50
10051;DHT22;5065;46.942;7.432;2023-04-06T15:05:10;16.00;58.70
10051;DHT22;5065;46.942;7.432;2023-04-06T15:07:37;16.10;57.30
10051;DHT22;5065;46.942;7.432;2023-04-06T15:10:06;16.10;59.40
10051;DHT22;5065;46.942;7.432;2023-04-06T15:12:35;16.10;65.10
10051;DHT22;5065;46.942;7.432;2023-04-06T15:15:03;16.10;64.20
